Time;durP1;ratioP1;P1;durP2;ratioP2;P2;SDS_P1;SDS_P2;PMS_P1;PMS_P2;Temp;Humidity;BMP_temperature;BMP_pressure;BME280_temperature;BME280_humidity;BME280_pressure;Samples;Min_cycle;Max_cycle;Signal;HPM_P1;HPM_P2
2022/01/30 00:01:41;;;;;;;61.08;48.60;;;17.40;58.90;;;;;;6059136;23;85301;-74
2022/01/30 00:04:06;;;;;;;60.25;48.47;;;17.30;58.80;;;;;;6065270;23;87918;-74
2022/01/30 00:06:32;;;;;;;60.63;48.97;;;17.30;58.80;;;;;;6058598;23;85818;-74
2022/01/30 00:08:58;;;;;;;63.05;48.60;;;17.30;59.00;;;;;;6056025;23;86520;-75
2022/01/30 00:11:33;;;;;;;62.53;48.95;;;17.20;58.70;;;;;;6059497;23;85420;-74
2022/01/30 00:14:14;;;;;;;63.03;48.65;;;17.20;59.00;;;;;;6055798;23;85739;-74
2022/01/30 00:17:02;;;;;;;63.25;48.67;;;17.20;59.00;;;;;;6057198;23;88637;-74
2022/01/30 00:19:40;;;;;;;63.00;48.53;;;17.20;59.10;;;;;;6059404;23;85717;-74
2022/01/30 00:25:06;;;;;;;61.38;48.67;;;17.10;59.10;;;;;;6059403;23;85202;-74
2022/01/30 00:27:45;;;;;;;59.45;48.35;;;17.10;59.00;;;;;;6062413;23;86611;-73
2022/01/30 00:30:14;;;;;;;64.10;48.55;;;17.10;59.00;;;;;;6057841;23;85488;-74
2022/01/30 00:32:40;;;;;;;62.60;48.55;;;17.10;59.10;;;;;;6061662;23;85471;-74
2022/01/30 00:35:07;;;;;;;62.92;48.65;;;17.00;58.90;;;;;;6059717;23;85461;-74
2022/01/30 00:37:32;;;;;;;60.65;48.22;;;17.00;58.90;;;;;;6055149;23;85590;-74
2022/01/30 00:39:58;;;;;;;61.50;48.15;;;17.00;59.00;;;;;;6057638;23;85584;-74
2022/01/30 00:42:24;;;;;;;60.17;48.33;;;17.00;59.10;;;;;;6062968;23;85246;-74
2022/01/30 00:44:49;;;;;;;60.83;48.45;;;17.00;59.00;;;;;;6057946;23;86211;-74
2022/01/30 00:47:15;;;;;;;61.03;48.03;;;17.00;59.00;;;;;;6059956;23;86768;-74
2022/01/30 00:49:41;;;;;;;62.35;48.67;;;17.00;58.90;;;;;;6056318;23;85097;-74
2022/01/30 00:52:10;;;;;;;62.53;48.63;;;16.90;59.00;;;;;;6062175;23;84924;-74
2022/01/30 00:54:39;;;;;;;61.28;48.60;;;16.90;59.00;;;;;;6056858;23;87042;-73
2022/01/30 00:57:07;;;;;;;60.70;48.35;;;16.90;59.00;;;;;;6058095;23;85538;-73
2022/01/30 00:59:33;;;;;;;63.90;48.28;;;16.80;59.00;;;;;;6058099;23;85256;-74
2022/01/30 01:01:58;;;;;;;62.10;48.35;;;16.90;59.00;;;;;;6061537;23;85397;-74
2022/01/30 01:04:24;;;;;;;59.55;48.08;;;16.90;59.00;;;;;;6060050;23;85623;-74
2022/01/30 01:06:50;;;;;;;62.30;48.55;;;16.80;59.20;;;;;;6060998;23;86541;-73
2022/01/30 01:09:21;;;;;;;60.05;48.20;;;16.80;59.00;;;;;;6058071;23;85653;-74
2022/01/30 01:25:12;;;;;;;62.60;48.00;;;16.70;59.00;;;;;;6062400;23;84884;-73
2022/01/30 01:27:37;;;;;;;61.00;48.38;;;16.70;59.00;;;;;;6055341;23;85794;-73
2022/01/30 01:30:04;;;;;;;61.58;48.33;;;16.70;59.10;;;;;;6057280;23;86658;-75
2022/01/30 01:32:29;;;;;;;59.92;48.25;;;16.70;59.10;;;;;;6058476;23;85214;-73
2022/01/30 01:34:55;;;;;;;59.90;48.15;;;16.70;59.20;;;;;;6057171;23;86730;-74
2022/01/30 01:37:23;;;;;;;61.75;48.42;;;16.60;59.10;;;;;;6057414;23;85939;-74
2022/01/30 01:39:49;;;;;;;59.40;48.08;;;16.60;59.10;;;;;;6056755;23;85019;-74
2022/01/30 01:42:16;;;;;;;58.53;48.10;;;16.60;59.10;;;;;;6050745;23;85306;-74
2022/01/30 01:44:47;;;;;;;59.83;48.30;;;16.60;59.10;;;;;;6055345;23;86583;-74
2022/01/30 01:47:14;;;;;;;59.30;47.75;;;16.60;59.10;;;;;;6060347;23;87078;-74
2022/01/30 01:49:40;;;;;;;60.28;48.15;;;16.60;59.10;;;;;;6064370;23;85675;-73
2022/01/30 01:52:21;;;;;;;61.78;48.05;;;16.50;59.10;;;;;;6066005;23;84740;-74
2022/01/30 01:54:49;;;;;;;60.83;48.20;;;16.50;59.10;;;;;;6062492;23;85028;-74
2022/01/30 01:57:17;;;;;;;61.35;48.42;;;16.50;59.20;;;;;;6059651;23;85877;-73
2022/01/30 01:59:42;;;;;;;61.67;48.13;;;16.50;59.10;;;;;;6063327;23;87262;-74
2022/01/30 02:02:16;;;;;;;62.20;47.95;;;16.50;59.30;;;;;;6064839;23;84915;-73
2022/01/30 02:04:43;;;;;;;60.33;47.95;;;16.50;59.20;;;;;;6064715;23;85916;-74
2022/01/30 02:07:52;;;;;;;59.55;47.97;;;16.40;59.30;;;;;;6066487;23;85977;-74
2022/01/30 02:10:19;;;;;;;60.15;48.03;;;16.40;59.30;;;;;;6063529;23;85388;-74
2022/01/30 02:12:53;;;;;;;61.70;47.63;;;16.40;59.30;;;;;;6063669;23;85008;-73
2022/01/30 02:23:55;;;;;;;60.58;48.15;;;16.40;59.30;;;;;;6056610;23;84979;-73
2022/01/30 02:26:25;;;;;;;58.15;47.70;;;16.30;59.20;;;;;;6032886;23;84912;-74
2022/01/30 02:28:55;;;;;;;59.65;48.20;;;16.30;59.40;;;;;;6030003;23;86473;-73
2022/01/30 02:31:22;;;;;;;60.42;47.88;;;16.30;59.30;;;;;;6035021;23;85838;-74
2022/01/30 02:33:48;;;;;;;60.70;47.55;;;16.30;59.40;;;;;;6037002;23;84907;-74
2022/01/30 02:36:16;;;;;;;61.45;48.08;;;16.30;59.40;;;;;;6033635;23;88524;-73
2022/01/30 02:38:45;;;;;;;59.72;47.75;;;16.20;59.30;;;;;;6036719;23;86290;-73
2022/01/30 02:41:13;;;;;;;60.25;48.03;;;16.20;59.30;;;;;;6035494;23;85581;-73
2022/01/30 02:43:56;;;;;;;58.35;47.65;;;16.20;59.40;;;;;;6032981;23;84978;-74
2022/01/30 02:46:31;;;;;;;59.75;47.95;;;16.20;59.30;;;;;;6057808;23;86671;-73
2022/01/30 02:49:11;;;;;;;61.92;47.88;;;16.20;59.40;;;;;;6035120;23;85214;-73
2022/01/30 02:51:46;;;;;;;58.88;47.78;;;16.10;59.30;;;;;;6037520;23;85344;-74
2022/01/30 02:54:12;;;;;;;60.58;48.00;;;16.10;59.40;;;;;;6059031;23;84995;-74
2022/01/30 02:56:49;;;;;;;59.47;47.55;;;16.10;59.40;;;;;;6030529;23;86320;-74
2022/01/30 02:59:18;;;;;;;59.58;48.17;;;16.10;59.40;;;;;;6031628;23;89260;-73
2022/01/30 03:01:53;;;;;;;60.90;47.72;;;16.10;59.40;;;;;;6055341;23;86820;-74
2022/01/30 03:04:19;;;;;;;58.50;47.47;;;16.00;59.50;;;;;;6036416;23;85490;-73
2022/01/30 03:06:45;;;;;;;61.10;47.85;;;16.10;59.50;;;;;;6032208;23;86445;-73
2022/01/30 03:09:13;;;;;;;59.90;47.60;;;16.00;59.40;;;;;;6034296;23;85388;-74
2022/01/30 03:11:43;;;;;;;62.30;47.75;;;16.00;59.40;;;;;;6035132;23;84965;-74
2022/01/30 03:14:09;;;;;;;59.67;47.70;;;16.00;59.40;;;;;;5968987;23;87228;-74
2022/01/30 03:16:35;;;;;;;59.80;47.72;;;16.00;59.50;;;;;;5995192;23;86166;-73
2022/01/30 03:19:05;;;;;;;57.30;47.40;;;16.00;59.60;;;;;;468318;23;10099019;-74
2022/01/30 03:21:31;;;;;;;59.22;47.97;;;16.00;59.50;;;;;;6058206;23;84853;-74
2022/01/30 03:23:59;;;;;;;60.35;47.83;;;15.90;59.40;;;;;;6058031;23;85275;-73
2022/01/30 03:26:25;;;;;;;61.03;47.92;;;15.90;59.50;;;;;;6057692;23;85535;-73
2022/01/30 03:28:52;;;;;;;58.50;47.78;;;15.90;59.50;;;;;;6058508;23;85762;-73
2022/01/30 03:31:34;;;;;;;58.45;47.65;;;15.90;59.50;;;;;;6058713;23;84358;-73
2022/01/30 03:34:10;;;;;;;59.78;48.15;;;15.90;59.50;;;;;;6058894;23;84766;-73
2022/01/30 03:36:38;;;;;;;58.95;47.75;;;15.90;59.60;;;;;;6057526;23;85683;-73
2022/01/30 03:39:07;;;;;;;57.63;47.33;;;15.90;59.60;;;;;;6061794;23;86090;-73
2022/01/30 03:41:33;;;;;;;58.92;47.63;;;15.80;59.60;;;;;;6060158;23;84938;-73
2022/01/30 03:43:59;;;;;;;58.85;47.45;;;15.80;59.70;;;;;;6061761;23;84920;-73
2022/01/30 03:46:25;;;;;;;60.35;47.95;;;15.80;59.60;;;;;;6056501;23;85105;-74
2022/01/30 03:48:50;;;;;;;58.53;47.95;;;15.80;59.60;;;;;;6055280;23;87360;-73
2022/01/30 03:51:16;;;;;;;58.25;47.55;;;15.80;59.70;;;;;;6058225;23;85683;-73
2022/01/30 03:53:43;;;;;;;58.97;47.45;;;15.80;59.70;;;;;;6052755;23;84894;-73
2022/01/30 03:56:09;;;;;;;58.10;47.17;;;15.70;60.20;;;;;;6056007;23;86140;-73
2022/01/30 03:58:37;;;;;;;59.00;47.95;;;15.70;59.60;;;;;;6059505;23;85025;-73
2022/01/30 04:01:03;;;;;;;57.22;47.53;;;15.70;59.60;;;;;;6057046;23;86021;-73
2022/01/30 04:03:37;;;;;;;58.60;47.80;;;15.70;59.60;;;;;;6062369;23;85458;-73
2022/01/30 04:06:06;;;;;;;59.40;47.28;;;15.70;59.70;;;;;;6056994;23;85449;-74
2022/01/30 04:08:34;;;;;;;62.03;48.03;;;15.70;59.70;;;;;;6031952;23;87258;-73
2022/01/30 04:11:00;;;;;;;57.65;47.42;;;15.70;59.60;;;;;;6057503;23;85961;-73
2022/01/30 04:13:35;;;;;;;58.45;47.28;;;15.70;59.70;;;;;;6057860;23;85425;-74
2022/01/30 04:16:03;;;;;;;59.72;47.58;;;15.60;59.70;;;;;;6029338;23;85658;-73
2022/01/30 04:18:29;;;;;;;58.83;47.25;;;15.70;59.70;;;;;;6028807;23;86339;-72
2022/01/30 04:20:55;;;;;;;57.17;47.13;;;15.60;59.50;;;;;;6027185;23;85590;-73
2022/01/30 04:23:20;;;;;;;61.33;47.45;;;15.60;59.80;;;;;;6021384;23;84892;-74
2022/01/30 04:25:57;;;;;;;59.05;47.47;;;15.60;59.60;;;;;;5999266;23;85169;-73
2022/01/30 04:28:26;;;;;;;56.90;47.08;;;15.60;59.70;;;;;;6028181;23;85911;-74
2022/01/30 04:30:52;;;;;;;58.60;47.45;;;15.60;59.70;;;;;;6024966;23;85274;-73
2022/01/30 04:33:17;;;;;;;60.83;47.53;;;15.50;59.70;;;;;;6026676;23;84912;-73
2022/01/30 04:35:44;;;;;;;56.42;47.15;;;15.60;59.80;;;;;;6027484;23;85258;-73
2022/01/30 04:38:17;;;;;;;58.20;47.60;;;15.50;59.70;;;;;;6029220;23;85417;-73
2022/01/30 04:54:58;;;;;;;60.88;47.80;;;15.60;60.10;;;;;;6030591;23;84528;-73
2022/01/30 05:04:56;;;;;;;56.92;47.45;;;16.20;59.60;;;;;;6039641;23;85191;-73
2022/01/30 05:09:52;;;;;;;58.22;47.15;;;16.60;59.30;;;;;;6036051;23;84951;-73
2022/01/30 05:12:18;;;;;;;58.47;47.75;;;16.80;58.90;;;;;;6035533;23;85197;-73
2022/01/30 05:14:44;;;;;;;60.72;47.75;;;17.00;58.50;;;;;;6039351;23;84774;-73
2022/01/30 05:17:10;;;;;;;58.35;47.38;;;17.30;58.20;;;;;;6037155;23;86256;-73
2022/01/30 05:19:42;;;;;;;61.15;47.83;;;17.40;57.60;;;;;;6035355;23;85464;-73
2022/01/30 05:22:08;;;;;;;59.00;47.85;;;17.60;57.30;;;;;;6035523;23;85785;-74
2022/01/30 05:24:34;;;;;;;60.53;47.65;;;17.90;56.80;;;;;;6034373;23;85059;-73
2022/01/30 05:27:03;;;;;;;59.65;47.65;;;18.10;56.40;;;;;;6034251;23;86462;-74
2022/01/30 05:29:31;;;;;;;59.05;47.65;;;18.20;55.90;;;;;;6033301;23;87456;-74
2022/01/30 05:32:00;;;;;;;59.35;47.60;;;18.40;55.50;;;;;;6037081;23;85499;-73
2022/01/30 05:34:26;;;;;;;58.75;47.53;;;18.60;55.10;;;;;;6035431;23;84976;-73
2022/01/30 05:37:00;;;;;;;60.35;47.70;;;18.80;54.70;;;;;;6033220;23;86430;-73
2022/01/30 05:39:33;;;;;;;59.83;47.63;;;19.00;54.40;;;;;;6035605;23;85426;-74
2022/01/30 05:42:02;;;;;;;59.30;47.95;;;19.10;53.80;;;;;;6035500;23;85409;-73
2022/01/30 05:44:55;;;;;;;60.40;47.85;;;19.30;53.40;;;;;;6035624;23;85350;-73
2022/01/30 05:47:33;;;;;;;63.85;48.10;;;19.50;53.00;;;;;;6030912;23;84908;-73
2022/01/30 05:53:05;;;;;;;60.65;47.80;;;19.70;52.10;;;;;;6028113;23;86181;-73
2022/01/30 05:55:33;;;;;;;60.83;47.85;;;19.90;51.80;;;;;;6031120;23;85559;-73
2022/01/30 05:57:59;;;;;;;67.90;48.00;;;20.00;51.50;;;;;;6027902;23;87198;-74
2022/01/30 06:00:28;;;;;;;62.72;48.45;;;20.00;51.30;;;;;;6000959;23;87098;-74
2022/01/30 06:03:02;;;;;;;67.22;48.33;;;20.10;51.00;;;;;;6030358;23;85526;-74
2022/01/30 06:05:31;;;;;;;65.13;48.15;;;20.10;50.70;;;;;;6051455;23;84928;-73
2022/01/30 06:08:15;;;;;;;63.90;48.35;;;20.10;50.60;;;;;;6027707;23;85133;-74
2022/01/30 06:10:44;;;;;;;66.75;48.42;;;20.20;50.40;;;;;;6023691;23;85893;-73
2022/01/30 06:13:17;;;;;;;60.70;48.25;;;20.10;50.30;;;;;;6028417;23;85557;-74
2022/01/30 06:15:46;;;;;;;65.18;48.13;;;20.10;50.20;;;;;;6057526;23;84795;-74
2022/01/30 06:18:24;;;;;;;64.63;47.83;;;20.00;50.10;;;;;;6061203;23;85369;-73
2022/01/30 06:20:50;;;;;;;68.72;48.20;;;20.00;50.10;;;;;;6011994;23;86746;-74
2022/01/30 06:23:16;;;;;;;65.90;48.38;;;20.00;49.90;;;;;;6016078;23;87362;-74
2022/01/30 06:26:08;;;;;;;61.36;47.94;;;20.00;49.90;;;;;;3565424;23;10088486;-73
2022/01/30 06:28:40;;;;;;;62.17;48.10;;;19.90;50.10;;;;;;4373664;23;10086985;-73
2022/01/30 06:31:05;;;;;;;;;;;19.80;50.00;;;;;;6088240;23;85674;-73
2022/01/30 06:33:38;;;;;;;66.13;48.13;;;19.80;50.00;;;;;;6088448;23;86207;-73
2022/01/30 06:36:10;;;;;;;61.88;48.20;;;19.70;50.10;;;;;;6087845;23;85049;-74
2022/01/30 06:38:50;;;;;;;63.00;48.05;;;19.70;50.20;;;;;;6084030;23;86229;-73
2022/01/30 06:41:18;;;;;;;59.92;47.55;;;19.60;50.10;;;;;;6088736;23;85379;-73
2022/01/30 06:43:48;;;;;;;68.13;48.30;;;19.50;50.20;;;;;;6083029;23;85322;-73
2022/01/30 06:46:21;;;;;;;63.63;47.75;;;19.50;50.40;;;;;;6085620;23;85573;-74
2022/01/30 06:48:49;;;;;;;61.85;48.03;;;19.40;50.40;;;;;;6062866;23;86855;-73
2022/01/30 06:51:23;;;;;;;67.45;47.95;;;19.30;50.50;;;;;;6094073;23;85652;-73
2022/01/30 06:53:55;;;;;;;61.33;47.95;;;19.20;50.50;;;;;;6094088;23;85524;-73
2022/01/30 06:56:27;;;;;;;60.85;47.92;;;19.20;50.60;;;;;;6093463;23;85101;-74
2022/01/30 06:59:01;;;;;;;62.58;48.10;;;19.10;50.70;;;;;;6091351;23;85357;-73
2022/01/30 07:01:32;;;;;;;64.68;47.83;;;19.00;50.60;;;;;;6091865;23;84852;-74
2022/01/30 07:04:03;;;;;;;61.83;48.08;;;19.00;50.70;;;;;;6095206;23;85121;-73
2022/01/30 07:06:30;;;;;;;62.50;48.25;;;18.90;50.80;;;;;;6093798;23;85261;-73
2022/01/30 07:09:10;;;;;;;63.78;47.95;;;18.80;50.90;;;;;;6093085;23;85362;-73
2022/01/30 07:11:38;;;;;;;65.80;47.95;;;18.70;51.00;;;;;;6090452;23;87045;-74
2022/01/30 07:14:04;;;;;;;65.10;47.88;;;18.70;51.20;;;;;;6064285;23;88525;-73
2022/01/30 07:16:32;;;;;;;62.80;47.85;;;18.60;51.30;;;;;;6093289;23;85490;-73
2022/01/30 07:19:06;;;;;;;63.72;48.22;;;18.50;51.20;;;;;;6093730;23;85220;-73
2022/01/30 07:21:43;;;;;;;64.25;47.80;;;18.50;51.50;;;;;;6063297;23;85914;-73
2022/01/30 07:24:12;;;;;;;65.78;48.05;;;18.50;51.60;;;;;;6041466;23;85448;-73
2022/01/30 07:26:46;;;;;;;64.28;48.00;;;18.30;51.50;;;;;;6064148;23;85231;-73
2022/01/30 07:29:17;;;;;;;62.85;47.67;;;18.30;51.70;;;;;;6061126;23;85255;-72
2022/01/30 07:31:45;;;;;;;62.95;48.38;;;18.20;51.80;;;;;;6031863;23;87457;-73
2022/01/30 07:34:19;;;;;;;60.90;47.63;;;18.20;51.80;;;;;;6063578;23;86940;-73
2022/01/30 07:36:55;;;;;;;60.08;47.42;;;18.20;52.00;;;;;;6040736;23;85491;-72
2022/01/30 07:39:21;;;;;;;59.33;48.05;;;18.10;52.00;;;;;;6063441;23;85578;-73
2022/01/30 07:41:50;;;;;;;63.97;48.00;;;18.10;52.20;;;;;;6038875;23;88344;-73
2022/01/30 07:44:15;;;;;;;66.22;47.97;;;18.00;52.20;;;;;;6060272;23;85330;-73
2022/01/30 07:46:41;;;;;;;57.53;47.55;;;17.90;52.20;;;;;;6062638;23;85407;-76
2022/01/30 07:49:10;;;;;;;61.15;47.60;;;17.90;52.50;;;;;;6063147;23;84905;-73
2022/01/30 07:51:38;;;;;;;62.40;48.03;;;17.90;52.50;;;;;;6058855;23;86557;-73
2022/01/30 07:54:11;;;;;;;61.17;47.65;;;17.90;52.60;;;;;;6066393;23;85463;-74
2022/01/30 07:56:39;;;;;;;61.08;47.70;;;17.90;52.60;;;;;;6062675;23;85000;-74
2022/01/30 07:59:07;;;;;;;59.75;47.65;;;18.00;52.70;;;;;;6059824;23;85563;-74
2022/01/30 08:01:43;;;;;;;64.20;47.88;;;18.10;52.90;;;;;;6059963;23;85718;-73
2022/01/30 08:04:14;;;;;;;60.25;47.97;;;18.10;52.90;;;;;;6056667;23;85474;-73
2022/01/30 08:06:50;;;;;;;60.63;47.90;;;18.20;52.70;;;;;;6061973;23;85353;-74
2022/01/30 08:09:15;;;;;;;58.97;47.75;;;18.30;52.60;;;;;;6065088;23;86322;-73
2022/01/30 08:11:44;;;;;;;59.58;47.50;;;18.40;52.40;;;;;;6063728;23;86991;-73
2022/01/30 08:14:12;;;;;;;61.33;47.42;;;18.40;52.10;;;;;;6064562;23;85559;-74
2022/01/30 08:16:39;;;;;;;62.88;47.92;;;18.50;51.90;;;;;;6063573;23;85588;-73
2022/01/30 08:19:05;;;;;;;63.88;48.03;;;18.60;51.60;;;;;;6064295;23;84978;-73
2022/01/30 08:21:47;;;;;;;59.60;48.08;;;18.60;51.40;;;;;;6067843;23;86550;-73
2022/01/30 08:24:24;;;;;;;62.40;47.88;;;18.70;51.30;;;;;;6067275;23;86062;-73
2022/01/30 08:26:58;;;;;;;58.22;47.58;;;18.70;51.20;;;;;;6065756;23;85624;-73
2022/01/30 08:29:24;;;;;;;60.40;47.95;;;18.70;51.00;;;;;;6062009;23;85455;-71
2022/01/30 08:31:50;;;;;;;59.30;47.83;;;18.80;50.90;;;;;;6064147;23;85344;-74
2022/01/30 08:34:16;;;;;;;60.58;47.65;;;18.80;50.80;;;;;;6067596;23;85859;-73
2022/01/30 08:36:46;;;;;;;58.38;47.95;;;18.80;50.70;;;;;;6063584;23;85116;-73
2022/01/30 08:39:14;;;;;;;62.53;47.85;;;18.80;50.80;;;;;;6063566;23;86577;-73
2022/01/30 08:41:46;;;;;;;58.08;47.67;;;18.80;50.50;;;;;;6063672;23;85354;-73
2022/01/30 08:44:15;;;;;;;59.85;47.50;;;18.80;50.60;;;;;;6062587;23;85380;-73
2022/01/30 08:46:43;;;;;;;61.70;47.95;;;18.80;50.70;;;;;;6064750;23;84825;-73
2022/01/30 08:49:24;;;;;;;58.97;47.75;;;18.80;50.70;;;;;;6062148;23;86682;-73
2022/01/30 08:51:53;;;;;;;63.83;48.00;;;18.70;50.40;;;;;;6052960;23;85445;-73
2022/01/30 08:54:28;;;;;;;58.25;47.88;;;18.80;50.70;;;;;;6060439;23;85127;-73
2022/01/30 08:56:56;;;;;;;57.80;48.03;;;18.80;50.60;;;;;;6056081;23;84929;-73
2022/01/30 08:59:28;;;;;;;59.67;47.53;;;18.80;50.80;;;;;;6055890;23;87431;-75
2022/01/30 09:02:18;;;;;;;60.15;48.15;;;18.70;51.10;;;;;;6057324;23;86344;-73
2022/01/30 09:05:00;;;;;;;65.88;48.33;;;18.80;51.10;;;;;;6060573;23;84949;-74
2022/01/30 09:07:44;;;;;;;65.70;48.08;;;18.80;51.10;;;;;;6061187;23;85434;-73
2022/01/30 09:10:11;;;;;;;71.63;48.67;;;18.90;51.30;;;;;;6058886;23;84960;-73
2022/01/30 09:12:42;;;;;;;68.35;48.90;;;18.90;51.60;;;;;;6062123;23;86902;-73
2022/01/30 09:15:29;;;;;;;65.57;48.35;;;18.90;51.60;;;;;;6005162;23;87558;-76
2022/01/30 09:17:57;;;;;;;67.95;48.33;;;18.90;51.70;;;;;;6038460;23;85622;-76
2022/01/30 09:20:23;;;;;;;66.30;48.72;;;19.00;51.70;;;;;;6041356;23;85905;-76
2022/01/30 09:22:51;;;;;;;71.47;49.25;;;18.90;51.70;;;;;;6045640;23;85062;-76
2022/01/30 09:25:17;;;;;;;69.53;48.72;;;18.90;51.70;;;;;;6050163;23;85191;-76
2022/01/30 09:27:44;;;;;;;72.60;49.33;;;18.90;51.50;;;;;;6045220;23;85934;-76
2022/01/30 09:30:20;;;;;;;68.65;48.40;;;18.90;51.60;;;;;;2402546;23;10107958;-75
2022/01/30 09:32:45;;;;;;;65.22;48.55;;;18.90;51.70;;;;;;4351684;23;10087294;-75
2022/01/30 09:35:19;;;;;;;77.32;49.42;;;18.80;51.60;;;;;;6021196;23;85469;-77
2022/01/30 09:37:44;;;;;;;64.72;48.72;;;18.80;51.60;;;;;;6029766;23;85242;-76
2022/01/30 09:40:10;;;;;;;66.05;48.72;;;18.80;51.60;;;;;;6032311;23;85305;-76
2022/01/30 09:42:37;;;;;;;67.50;48.83;;;18.90;51.80;;;;;;6029838;23;86047;-75
2022/01/30 09:45:04;;;;;;;67.47;49.20;;;18.80;51.60;;;;;;6030016;23;85678;-75
2022/01/30 09:47:31;;;;;;;68.85;49.15;;;18.80;51.60;;;;;;6028943;23;85510;-75
2022/01/30 09:49:59;;;;;;;67.25;48.90;;;18.90;51.70;;;;;;6030872;23;84831;-75
2022/01/30 09:52:27;;;;;;;63.15;49.05;;;18.90;51.60;;;;;;6033086;23;85846;-74
2022/01/30 09:54:54;;;;;;;64.80;48.92;;;19.00;51.60;;;;;;6005487;23;85277;-75
2022/01/30 09:57:19;;;;;;;66.32;48.95;;;19.00;51.50;;;;;;6005108;23;85002;-75
2022/01/30 09:59:46;;;;;;;66.30;48.83;;;19.10;51.60;;;;;;6026969;23;85604;-75
2022/01/30 10:02:13;;;;;;;75.88;49.58;;;19.10;51.40;;;;;;6031080;23;85703;-75
2022/01/30 10:04:39;;;;;;;67.43;49.42;;;19.20;51.30;;;;;;6033260;23;87484;-74
2022/01/30 10:07:15;;;;;;;67.35;49.13;;;19.30;51.30;;;;;;6034598;23;85338;-75
2022/01/30 10:09:46;;;;;;;63.08;48.83;;;19.30;51.20;;;;;;6028293;23;85343;-75
2022/01/30 10:12:19;;;;;;;64.65;49.60;;;19.40;50.90;;;;;;6030667;23;88306;-75
2022/01/30 10:15:06;;;;;;;65.97;49.38;;;19.40;50.90;;;;;;6021523;23;86394;-75
2022/01/30 10:17:35;;;;;;;67.60;49.45;;;19.50;50.80;;;;;;5999733;23;84962;-75
2022/01/30 10:20:12;;;;;;;68.68;50.33;;;19.50;50.70;;;;;;6000562;23;85650;-75
2022/01/30 10:22:54;;;;;;;68.93;49.85;;;19.50;50.70;;;;;;5998282;23;86122;-74
2022/01/30 10:25:35;;;;;;;68.05;49.10;;;19.60;50.80;;;;;;5999471;23;88103;-75
2022/01/30 10:28:04;;;;;;;73.90;50.03;;;19.60;50.90;;;;;;5998311;23;85533;-75
2022/01/30 10:30:38;;;;;;;66.22;49.38;;;19.60;50.70;;;;;;5994656;23;87042;-75
2022/01/30 10:33:05;;;;;;;71.85;50.28;;;19.60;50.70;;;;;;6003188;23;84945;-76
2022/01/30 10:36:03;;;;;;;67.53;50.05;;;19.60;50.50;;;;;;5974380;23;86203;-76
2022/01/30 10:38:32;;;;;;;70.85;49.83;;;19.50;50.40;;;;;;6001083;23;84930;-75
2022/01/30 10:41:10;;;;;;;69.55;50.22;;;19.60;50.50;;;;;;5995788;23;85848;-76
2022/01/30 10:43:54;;;;;;;66.47;49.90;;;19.50;50.40;;;;;;6001742;23;85591;-75
2022/01/30 10:46:28;;;;;;;72.95;50.10;;;19.50;50.50;;;;;;6004824;23;85470;-75
2022/01/30 10:48:57;;;;;;;75.95;50.35;;;19.50;51.30;;;;;;6005068;23;85298;-75
2022/01/30 10:51:28;;;;;;;70.75;49.75;;;19.50;50.90;;;;;;5998283;23;85689;-76
2022/01/30 10:53:54;;;;;;;74.70;50.33;;;19.50;51.00;;;;;;5998120;23;85511;-75
2022/01/30 10:56:29;;;;;;;68.40;50.45;;;19.50;51.00;;;;;;5995242;23;85850;-75
2022/01/30 10:59:14;;;;;;;68.85;50.15;;;19.50;50.90;;;;;;5996172;23;85361;-75
2022/01/30 11:01:45;;;;;;;71.13;50.55;;;19.40;50.70;;;;;;5999054;23;86275;-75
2022/01/30 11:04:21;;;;;;;79.53;52.58;;;19.40;50.90;;;;;;6002592;23;85862;-73
2022/01/30 11:06:47;;;;;;;78.78;52.10;;;19.40;53.10;;;;;;5997927;23;85638;-76
2022/01/30 11:09:18;;;;;;;66.53;51.08;;;19.40;53.70;;;;;;5973122;23;85563;-74
2022/01/30 11:11:49;;;;;;;;;;;19.40;54.10;;;;;;6002394;23;85020;-75
2022/01/30 11:14:18;;;;;;;70.07;50.13;;;19.40;53.50;;;;;;6027943;23;85978;-76
2022/01/30 11:17:02;;;;;;;67.05;50.20;;;19.30;53.40;;;;;;6031443;23;85156;-76
2022/01/30 11:19:30;;;;;;;71.70;50.90;;;19.30;52.60;;;;;;6029309;23;84931;-76
2022/01/30 11:22:09;;;;;;;71.13;50.90;;;19.20;52.00;;;;;;6033873;23;85040;-76
2022/01/30 11:24:42;;;;;;;74.75;50.85;;;19.30;52.30;;;;;;6028897;23;85443;-76
2022/01/30 11:27:09;;;;;;;68.28;51.00;;;19.20;52.70;;;;;;6032928;23;86422;-76
2022/01/30 11:29:37;;;;;;;66.85;50.75;;;19.20;53.10;;;;;;6025830;23;85302;-76
2022/01/30 11:32:05;;;;;;;68.20;50.60;;;19.20;53.00;;;;;;6032288;23;86071;-76
2022/01/30 11:34:36;;;;;;;71.57;51.00;;;19.10;52.70;;;;;;6026984;23;85692;-77
2022/01/30 11:37:03;;;;;;;66.03;50.33;;;19.10;53.00;;;;;;6032359;23;86933;-74
2022/01/30 11:39:29;;;;;;;71.18;51.17;;;19.00;52.70;;;;;;6029646;23;85047;-74
2022/01/30 11:42:08;;;;;;;70.45;50.60;;;19.00;53.10;;;;;;6030845;23;85279;-74
2022/01/30 11:44:35;;;;;;;67.78;50.40;;;18.90;53.00;;;;;;6023301;23;86149;-75
2022/01/30 11:47:03;;;;;;;67.85;50.58;;;19.00;52.60;;;;;;6031740;23;85535;-75
2022/01/30 11:49:40;;;;;;;73.78;50.35;;;19.00;52.80;;;;;;6033278;23;85610;-74
2022/01/30 11:52:09;;;;;;;71.10;50.65;;;18.90;52.90;;;;;;6035047;23;86179;-74
2022/01/30 11:54:35;;;;;;;69.80;50.22;;;18.90;53.20;;;;;;6031920;23;87254;-74
2022/01/30 11:57:03;;;;;;;68.22;50.05;;;18.90;53.10;;;;;;6028382;23;87261;-74
2022/01/30 11:59:39;;;;;;;68.15;49.92;;;18.90;53.20;;;;;;6027680;23;84893;-75
2022/01/30 12:02:24;;;;;;;70.72;50.28;;;18.90;52.70;;;;;;6029033;23;86126;-73
2022/01/30 12:04:58;;;;;;;69.28;50.20;;;18.90;53.60;;;;;;6034458;23;85420;-73
2022/01/30 12:07:49;;;;;;;67.78;49.78;;;18.90;53.70;;;;;;6027787;23;86962;-75
2022/01/30 12:10:15;;;;;;;;;;;18.90;54.20;;;;;;6034249;23;85469;-75
2022/01/30 12:12:51;;;;;;;64.47;49.35;;;18.90;53.60;;;;;;6037509;23;85838;-73
2022/01/30 12:15:39;;;;;;;71.07;49.83;;;18.90;53.20;;;;;;6015586;23;86628;-73
2022/01/30 12:18:09;;;;;;;71.22;49.83;;;18.90;53.10;;;;;;6003000;23;85301;-74
2022/01/30 12:21:05;;;;;;;71.65;50.15;;;18.90;53.00;;;;;;6004493;23;84950;-73
2022/01/30 12:23:35;;;;;;;66.57;49.60;;;18.90;53.00;;;;;;5959960;23;87178;-73
2022/01/30 12:26:05;;;;;;;66.10;49.80;;;18.90;53.30;;;;;;5996117;23;87290;-73
2022/01/30 12:28:49;;;;;;;66.60;49.78;;;18.90;53.90;;;;;;5995901;23;85470;-74
2022/01/30 12:31:48;;;;;;;71.75;49.97;;;18.90;53.50;;;;;;5957466;23;87118;-74
2022/01/30 12:34:37;;;;;;;66.65;49.55;;;18.90;53.20;;;;;;5981095;23;86929;-74
2022/01/30 12:41:17;;;;;;;67.18;49.72;;;19.00;53.30;;;;;;5940476;23;86312;-73
2022/01/30 12:43:44;;;;;;;62.80;49.40;;;18.90;53.10;;;;;;5984849;23;85568;-73
2022/01/30 12:46:11;;;;;;;66.05;50.00;;;18.90;52.90;;;;;;5980721;23;87418;-73
2022/01/30 12:48:37;;;;;;;68.10;49.53;;;18.90;52.70;;;;;;5981346;23;86590;-74
2022/01/30 12:51:07;;;;;;;70.95;49.85;;;18.90;52.60;;;;;;5982783;23;86473;-74
2022/01/30 12:53:38;;;;;;;66.70;49.97;;;18.90;52.60;;;;;;5982425;23;85559;-74
2022/01/30 12:56:21;;;;;;;65.12;48.33;;;18.90;52.40;;;;;;5331989;23;10001290;-74
2022/01/30 12:58:49;;;;;;;68.28;49.67;;;18.80;52.60;;;;;;1612100;23;10088078;-73
2022/01/30 13:01:15;;;;;;;67.32;49.58;;;18.90;53.10;;;;;;5992086;23;85729;-73
2022/01/30 13:03:42;;;;;;;70.43;50.03;;;18.90;53.10;;;;;;5999483;23;85727;-73
2022/01/30 13:06:08;;;;;;;66.00;49.67;;;18.80;53.30;;;;;;6022036;23;86858;-73
2022/01/30 13:09:03;;;;;;;72.20;49.67;;;18.80;53.30;;;;;;5994589;23;85756;-72
2022/01/30 13:11:29;;;;;;;75.28;49.92;;;18.80;53.50;;;;;;5976408;23;85310;-73
2022/01/30 13:14:04;;;;;;;66.95;49.80;;;18.80;53.60;;;;;;5973198;23;88079;-73
2022/01/30 13:16:35;;;;;;;71.47;50.33;;;18.80;53.70;;;;;;6028647;23;87024;-74
2022/01/30 13:19:06;;;;;;;67.40;49.75;;;18.80;53.80;;;;;;6029111;23;84974;-74
2022/01/30 13:21:33;;;;;;;64.60;49.55;;;18.80;53.80;;;;;;6025762;23;86027;-74
2022/01/30 13:24:01;;;;;;;69.90;50.03;;;18.80;54.30;;;;;;6027323;23;88063;-74
2022/01/30 13:26:35;;;;;;;66.68;49.60;;;18.70;53.90;;;;;;6027314;23;85920;-74
2022/01/30 13:29:02;;;;;;;67.90;50.13;;;18.70;54.20;;;;;;6025672;23;85659;-74
2022/01/30 13:31:31;;;;;;;66.93;50.10;;;18.70;54.10;;;;;;6024208;23;85352;-73
2022/01/30 13:34:26;;;;;;;65.03;49.45;;;18.70;54.20;;;;;;6028063;23;86368;-74
2022/01/30 13:37:23;;;;;;;66.30;50.22;;;18.70;54.40;;;;;;6025622;23;86741;-74
2022/01/30 13:40:07;;;;;;;69.35;50.05;;;18.70;54.20;;;;;;6020739;23;85670;-75
2022/01/30 13:48:01;;;;;;;67.93;50.35;;;18.70;54.60;;;;;;6029070;23;84913;-74
2022/01/30 13:50:48;;;;;;;67.55;50.05;;;18.70;55.50;;;;;;6034469;23;84877;-74